Time;durP1;ratioP1;P1;durP2;ratioP2;P2;SDS_P1;SDS_P2;PMS_P1;PMS_P2;Temp;Humidity;BMP_temperature;BMP_pressure;BME280_temperature;BME280_humidity;BME280_pressure;Samples;Min_cycle;Max_cycle;Signal;HPM_P1;HPM_P2
2023/10/07 00:00:15;;;;;;;;;;;;;;;19.80;55.37;100396.59;347535;28;1090;-75
2023/10/07 00:00:38;;;;;;;;;;;;;;;19.82;55.32;100393.84;347042;28;915;-76
2023/10/07 00:00:59;;;;;;;;;;;;;;;19.82;55.25;100391.19;344898;28;959;-76
2023/10/07 00:01:11;;;;;;;;;;;;;;;19.80;55.44;100396.59;340281;29;1384;-75
2023/10/07 00:01:24;;;;;;;;;;;;;;;19.80;55.17;100393.09;343571;28;845;-75
2023/10/07 00:01:34;;;;;;;;;;;;;;;19.80;55.30;100398.41;343578;28;860;-75
2023/10/07 00:01:45;;;;;;;;;;;;;;;19.79;55.33;100394.88;344841;28;781;-75
2023/10/07 00:01:55;;;;;;;;;;;;;;;19.80;55.37;100396.59;344051;28;1502;-75
2023/10/07 00:02:12;;;;;;;;;;;;;;;19.80;55.56;100393.09;345930;28;1334;-75
2023/10/07 00:02:30;;;;;;;;;;;;;;;19.81;55.27;100389.47;343060;28;891;-75
2023/10/07 00:02:41;;;;;;;;;;;;;;;19.80;55.27;100395.75;342065;28;1016;-75
2023/10/07 00:02:52;;;;;;;;;;;;;;;19.78;55.12;100387.88;340372;28;1352;-75
2023/10/07 00:03:05;;;;;;;;;;;;;;;19.79;55.18;100400.19;339171;29;1502;-75
2023/10/07 00:03:16;;;;;;;;;;;;;;;19.79;55.05;100392.22;340832;29;1398;-75
2023/10/07 00:03:26;;;;;;;;;;;;;;;19.78;55.52;100390.53;339573;29;1365;-75
2023/10/07 00:03:38;;;;;;;;;;;;;;;19.78;55.37;100392.34;336079;29;1272;-75
2023/10/07 00:03:50;;;;;;;;;;;;;;;19.78;55.29;100392.34;337018;29;838;-75
2023/10/07 00:04:00;;;;;;;;;;;;;;;19.79;55.49;100396.69;335654;29;815;-75
2023/10/07 00:04:13;;;;;;;;;;;;;;;19.78;55.36;100389.69;339298;29;1247;-75
2023/10/07 00:04:28;;;;;;;;;;;;;;;19.77;55.31;100391.47;339635;28;1348;-75
2023/10/07 00:04:39;;;;;;;;;;;;;;;19.78;55.59;100389.69;340708;29;1285;-75
2023/10/07 00:04:50;;;;;;;;;;;;;;;19.79;55.36;100394.03;337991;29;1664;-75
2023/10/07 00:05:00;;;;;;;;;;;;;;;19.78;55.57;100392.34;334297;29;1257;-75
2023/10/07 00:05:15;;;;;;;;;;;;;;;19.78;55.37;100392.34;333986;29;1911;-75
2023/10/07 00:05:28;;;;;;;;;;;;;;;19.77;55.62;100387.97;335276;29;1916;-75
2023/10/07 00:05:42;;;;;;;;;;;;;;;19.75;55.64;100398.69;336376;29;842;-75
2023/10/07 00:06:00;;;;;;;;;;;;;;;19.73;55.79;100386.47;334292;29;1117;-75
2023/10/07 00:06:11;;;;;;;;;;;;;;;19.73;55.51;100392.63;333014;29;1418;-75
2023/10/07 00:06:26;;;;;;;;;;;;;;;19.72;55.53;100393.59;332734;29;1706;-75
2023/10/07 00:06:38;;;;;;;;;;;;;;;19.71;55.63;100399.00;331568;29;1891;-75
2023/10/07 00:06:49;;;;;;;;;;;;;;;19.69;55.68;100398.25;330589;29;863;-75
2023/10/07 00:07:00;;;;;;;;;;;;;;;19.68;55.57;100399.19;325226;30;1946;-75
2023/10/07 00:07:14;;;;;;;;;;;;;;;19.67;55.47;100397.50;327717;30;2073;-75
2023/10/07 00:07:30;;;;;;;;;;;;;;;19.67;55.63;100392.19;329171;30;1727;-75
2023/10/07 00:07:43;;;;;;;;;;;;;;;19.67;55.51;100402.81;325490;30;1389;-75
2023/10/07 00:08:00;;;;;;;;;;;;;;;19.67;55.85;100397.50;324395;30;1349;-75
2023/10/07 00:08:16;;;;;;;;;;;;;;;19.66;55.70;100391.34;322256;30;1802;-75
2023/10/07 00:08:27;;;;;;;;;;;;;;;19.66;55.91;100390.50;322592;30;2519;-75
2023/10/07 00:08:38;;;;;;;;;;;;;;;19.67;55.82;100403.66;318678;30;4112;-75
2023/10/07 00:08:50;;;;;;;;;;;;;;;19.65;55.92;100394.94;316810;30;2588;-75
2023/10/07 00:09:01;;;;;;;;;;;;;;;19.64;55.99;100403.00;322251;30;1410;-75
2023/10/07 00:09:14;;;;;;;;;;;;;;;19.64;55.62;100403.00;323014;30;2670;-75
2023/10/07 00:09:26;;;;;;;;;;;;;;;19.62;55.66;100403.13;321876;30;2733;-75
2023/10/07 00:09:47;;;;;;;;;;;;;;;19.62;55.90;100402.25;319206;30;2261;-75
2023/10/07 00:10:04;;;;;;;;;;;;;;;19.61;55.80;100404.06;311856;31;1434;-75
2023/10/07 00:10:19;;;;;;;;;;;;;;;19.61;55.76;100401.41;309982;31;1328;-75
2023/10/07 00:10:36;;;;;;;;;;;;;;;19.61;55.94;100404.06;308051;31;2525;-75
2023/10/07 00:10:48;;;;;;;;;;;;;;;19.62;55.95;100399.59;308518;31;1278;-75
2023/10/07 00:10:59;;;;;;;;;;;;;;;19.62;56.00;100402.25;308043;31;3051;-75
2023/10/07 00:11:11;;;;;;;;;;;;;;;19.62;55.92;100397.81;305927;32;3295;-75
2023/10/07 00:11:22;;;;;;;;;;;;;;;19.62;56.12;100403.13;305090;32;3521;-75
2023/10/07 00:11:34;;;;;;;;;;;;;;;19.62;55.97;100407.56;306504;32;871;-75
2023/10/07 00:11:46;;;;;;;;;;;;;;;19.61;56.12;100404.06;303251;32;1291;-75
2023/10/07 00:11:59;;;;;;;;;;;;;;;19.60;55.93;100403.22;301617;32;2492;-75
2023/10/07 00:12:13;;;;;;;;;;;;;;;19.62;55.98;100402.25;303684;32;2303;-75
2023/10/07 00:12:25;;;;;;;;;;;;;;;19.62;56.26;100399.59;300731;32;3137;-75
2023/10/07 00:12:36;;;;;;;;;;;;;;;19.62;55.95;100404.91;298887;32;3865;-75
2023/10/07 00:12:46;;;;;;;;;;;;;;;19.61;56.34;100404.06;301201;32;849;-75
2023/10/07 00:13:03;;;;;;;;;;;;;;;19.60;56.03;100405.88;297216;32;5244;-75
2023/10/07 00:13:14;;;;;;;;;;;;;;;19.60;56.20;100403.22;298155;32;4263;-75
2023/10/07 00:13:26;;;;;;;;;;;;;;;19.59;56.13;100406.81;298761;32;4663;-75
2023/10/07 00:13:40;;;;;;;;;;;;;;;19.60;56.24;100408.53;297103;33;4703;-75
2023/10/07 00:13:54;;;;;;;;;;;;;;;19.58;56.25;100399.81;296251;32;4869;-75
2023/10/07 00:14:09;;;;;;;;;;;;;;;19.58;56.39;100405.13;296888;33;1378;-75
2023/10/07 00:14:26;;;;;;;;;;;;;;;19.58;56.39;100397.16;293605;33;2674;-75
2023/10/07 00:14:37;;;;;;;;;;;;;;;19.58;56.40;100404.25;296316;33;4154;-75
2023/10/07 00:14:47;;;;;;;;;;;;;;;19.59;56.28;100405.97;296138;33;814;-75
2023/10/07 00:14:57;;;;;;;;;;;;;;;19.58;56.61;100398.94;290882;33;5538;-75
2023/10/07 00:15:11;;;;;;;;;;;;;;;19.57;56.20;100397.25;287194;34;6768;-76
2023/10/07 00:15:21;;;;;;;;;;;;;;;19.57;56.22;100398.09;286904;33;6098;-75
2023/10/07 00:15:32;;;;;;;;;;;;;;;19.57;56.40;100399.91;288587;34;1264;-75
2023/10/07 00:15:43;;;;;;;;;;;;;;;19.56;56.95;100401.72;287058;34;6512;-75
2023/10/07 00:15:53;;;;;;;;;;;;;;;19.55;56.72;100401.81;286244;34;6241;-75
2023/10/07 00:16:04;;;;;;;;;;;;;;;19.54;56.93;100400.97;286473;34;876;-75
2023/10/07 00:16:18;;;;;;;;;;;;;;;19.53;57.00;100399.25;289151;34;6752;-75
2023/10/07 00:16:28;;;;;;;;;;;;;;;19.54;57.03;100406.25;286762;34;4903;-75
2023/10/07 00:16:38;;;;;;;;;;;;;;;19.52;57.03;100400.19;286097;34;4700;-75
2023/10/07 00:16:50;;;;;;;;;;;;;;;19.51;57.11;100401.16;288376;34;872;-75
2023/10/07 00:17:05;;;;;;;;;;;;;;;19.52;57.03;100405.50;284375;34;1325;-75
2023/10/07 00:17:18;;;;;;;;;;;;;;;19.53;56.89;100404.56;282749;35;1390;-75
2023/10/07 00:17:29;;;;;;;;;;;;;;;19.54;57.31;100408.91;281274;35;9142;-75
2023/10/07 00:17:42;;;;;;;;;;;;;;;19.52;57.12;100399.34;282202;34;8107;-75
2023/10/07 00:17:56;;;;;;;;;;;;;;;19.51;57.61;100403.81;283471;34;10274;-75
2023/10/07 00:18:18;;;;;;;;;;;;;;;19.51;57.45;100402.97;283384;34;7740;-75
2023/10/07 00:18:28;;;;;;;;;;;;;;;19.50;57.52;100398.56;280409;34;8617;-75
2023/10/07 00:18:40;;;;;;;;;;;;;;;19.50;57.18;100407.38;278480;35;7264;-76
2023/10/07 00:20:45;;;;;;;;;;;;;;;19.50;57.36;100403.88;2501596;27;19933;-75
2023/10/07 00:20:55;;;;;;;;;;;;;;;19.49;57.74;100405.72;354579;27;771;-75
2023/10/07 00:21:07;;;;;;;;;;;;;;;19.51;57.69;100409.13;351646;28;1233;-75
2023/10/07 00:21:25;;;;;;;;;;;;;;;19.51;57.72;100402.97;350342;28;1271;-75
2023/10/07 00:22:08;;;;;;;;;;;;;;;19.46;58.09;100405.91;348866;28;800;-75
2023/10/07 00:22:19;;;;;;;;;;;;;;;19.46;57.74;100405.91;347395;28;1400;-75
2023/10/07 00:22:40;;;;;;;;;;;;;;;19.46;57.85;100403.25;347629;28;1397;-75
2023/10/07 00:22:54;;;;;;;;;;;;;;;19.46;57.85;100408.56;346056;28;1379;-75
2023/10/07 00:23:04;;;;;;;;;;;;;;;19.44;58.53;100407.81;348016;28;1425;-75
2023/10/07 00:23:28;;;;;;;;;;;;;;;19.42;58.38;100401.75;347659;28;777;-75
2023/10/07 00:23:38;;;;;;;;;;;;;;;19.43;58.31;100406.09;347742;28;899;-75
2023/10/07 00:23:52;;;;;;;;;;;;;;;19.42;58.28;100407.06;347730;28;801;-75
2023/10/07 00:24:06;;;;;;;;;;;;;;;19.41;58.66;100405.34;345865;28;1367;-75
2023/10/07 00:24:17;;;;;;;;;;;;;;;19.42;58.33;100409.72;346193;28;840;-75
2023/10/07 00:24:32;;;;;;;;;;;;;;;19.43;58.42;100405.25;347469;28;1648;-75
2023/10/07 00:24:48;;;;;;;;;;;;;;;19.42;58.36;100404.41;347525;28;1258;-76
2023/10/07 00:24:58;;;;;;;;;;;;;;;19.42;58.66;100411.50;346168;28;1388;-76
2023/10/07 00:25:12;;;;;;;;;;;;;;;19.41;58.56;100408.00;346174;28;876;-75
2023/10/07 00:25:22;;;;;;;;;;;;;;;19.41;58.40;100405.34;346155;28;1170;-75
2023/10/07 00:25:33;;;;;;;;;;;;;;;19.41;58.95;100408.00;347688;28;820;-75
2023/10/07 00:25:49;;;;;;;;;;;;;;;19.40;58.80;100401.00;344817;28;1205;-75
2023/10/07 00:26:00;;;;;;;;;;;;;;;19.40;58.97;100406.31;343661;28;833;-75
2023/10/07 00:26:10;;;;;;;;;;;;;;;19.42;59.03;100407.06;344673;28;1388;-75
2023/10/07 00:26:20;;;;;;;;;;;;;;;19.42;59.15;100409.72;344762;28;1212;-75
2023/10/07 00:26:31;;;;;;;;;;;;;;;19.43;58.88;100406.09;345996;28;1182;-75
2023/10/07 00:26:43;;;;;;;;;;;;;;;19.43;58.79;100406.09;346306;28;856;-75
2023/10/07 00:26:53;;;;;;;;;;;;;;;19.44;58.76;100407.81;345068;28;896;-75
2023/10/07 00:27:05;;;;;;;;;;;;;;;19.45;58.43;100403.34;343713;28;2918;-75
2023/10/07 00:27:30;;;;;;;;;;;;;;;19.46;58.39;100410.38;341993;28;5435;-75
2023/10/07 00:27:41;;;;;;;;;;;;;;;19.44;58.65;100413.13;343563;28;888;-75
2023/10/07 00:27:53;;;;;;;;;;;;;;;19.42;58.59;100408.84;339414;29;3021;-75
2023/10/07 00:28:17;;;;;;;;;;;;;;;19.42;58.75;100408.84;339288;29;1277;-75
2023/10/07 00:28:31;;;;;;;;;;;;;;;19.41;58.66;100407.16;336867;29;917;-75
2023/10/07 00:28:51;;;;;;;;;;;;;;;19.39;58.96;100404.59;337056;29;827;-75
2023/10/07 00:29:01;;;;;;;;;;;;;;;19.38;58.81;100413.50;333741;29;1410;-75
2023/10/07 00:29:12;;;;;;;;;;;;;;;19.36;59.25;100410.09;329315;29;1221;-75
2023/10/07 00:29:24;;;;;;;;;;;;;;;19.37;58.84;100411.81;330286;29;1716;-75
2023/10/07 00:29:51;;;;;;;;;;;;;;;19.38;58.93;100413.50;330821;29;1919;-75
2023/10/07 00:30:07;;;;;;;;;;;;;;;19.36;59.07;100410.09;329330;30;923;-75
2023/10/07 00:30:27;;;;;;;;;;;;;;;19.37;59.19;100410.97;333398;29;1066;-75
2023/10/07 00:30:38;;;;;;;;;;;;;;;19.36;59.46;100411.91;334742;29;1485;-75
2023/10/07 00:30:49;;;;;;;;;;;;;;;19.36;59.09;100414.56;332327;29;1717;-75
2023/10/07 00:31:03;;;;;;;;;;;;;;;19.36;59.34;100415.41;325676;30;1405;-75
2023/10/07 00:31:13;;;;;;;;;;;;;;;19.35;59.18;100411.06;322174;30;1278;-75
2023/10/07 00:31:27;;;;;;;;;;;;;;;19.34;59.36;100417.31;321217;30;2185;-75
2023/10/07 00:31:40;;;;;;;;;;;;;;;19.32;59.46;100413.91;322752;30;2224;-75
2023/10/07 00:31:52;;;;;;;;;;;;;;;19.33;59.38;100415.59;324184;30;1622;-75
2023/10/07 00:32:04;;;;;;;;;;;;;;;19.32;59.26;100413.91;326676;30;1280;-75
2023/10/07 00:32:15;;;;;;;;;;;;;;;19.33;59.30;100414.75;326033;30;1146;-75
2023/10/07 00:32:31;;;;;;;;;;;;;;;19.31;59.61;100412.19;325486;30;1205;-75
2023/10/07 00:32:45;;;;;;;;;;;;;;;19.30;59.37;100418.47;322063;30;1351;-75
2023/10/07 00:32:55;;;;;;;;;;;;;;;19.30;59.57;100415.81;319131;30;2028;-75
2023/10/07 00:33:09;;;;;;;;;;;;;;;19.29;59.69;100419.41;317400;30;2455;-75
2023/10/07 00:33:21;;;;;;;;;;;;;;;19.28;59.68;100425.66;314053;31;2437;-76
2023/10/07 00:33:46;;;;;;;;;;;;;;;19.29;59.67;100419.41;315007;31;2449;-75
2023/10/07 00:34:06;;;;;;;;;;;;;;;19.27;59.48;100419.50;312903;31;1394;-75
2023/10/07 00:34:22;;;;;;;;;;;;;;;19.27;59.59;100416.00;309246;31;1456;-75
2023/10/07 00:34:38;;;;;;;;;;;;;;;19.27;59.57;100418.66;307654;31;1913;-75
2023/10/07 00:34:49;;;;;;;;;;;;;;;19.26;59.79;100419.59;311163;31;2405;-75
2023/10/07 00:35:00;;;;;;;;;;;;;;;19.24;59.90;100418.84;310625;31;1328;-75
2023/10/07 00:35:11;;;;;;;;;;;;;;;19.22;59.61;100420.75;309138;31;2810;-75
2023/10/07 00:35:23;;;;;;;;;;;;;;;19.21;59.72;100416.38;309153;31;3603;-75
2023/10/07 00:35:34;;;;;;;;;;;;;;;19.21;59.59;100417.25;308753;31;3676;-75
2023/10/07 00:35:49;;;;;;;;;;;;;;;19.20;59.96;100420.84;306368;32;1383;-75
2023/10/07 00:36:05;;;;;;;;;;;;;;;19.21;59.76;100416.38;304810;32;1387;-75
2023/10/07 00:36:17;;;;;;;;;;;;;;;19.20;59.94;100422.66;302270;32;924;-75
2023/10/07 00:36:44;;;;;;;;;;;;;;;19.20;60.01;100420.00;294082;33;2910;-75
2023/10/07 00:36:58;;;;;;;;;;;;;;;19.19;60.17;100420.94;295343;33;2894;-76
2023/10/07 00:37:09;;;;;;;;;;;;;;;19.20;59.97;100425.28;292866;33;3301;-75
2023/10/07 00:37:20;;;;;;;;;;;;;;;19.19;59.84;100423.59;293476;33;4081;-75
2023/10/07 00:37:33;;;;;;;;;;;;;;;19.20;59.72;100423.50;296132;33;1351;-75
2023/10/07 00:37:44;;;;;;;;;;;;;;;19.22;59.85;100424.25;293244;33;1572;-75
2023/10/07 00:37:58;;;;;;;;;;;;;;;19.22;59.95;100428.72;294221;33;4811;-75
2023/10/07 00:38:14;;;;;;;;;;;;;;;19.23;60.00;100425.09;294726;33;5113;-75
2023/10/07 00:38:37;;;;;;;;;;;;;;;19.21;59.87;100419.91;289036;33;4895;-75
2023/10/07 00:38:48;;;;;;;;;;;;;;;19.20;59.87;100425.28;289533;33;3129;-75
2023/10/07 00:38:59;;;;;;;;;;;;;;;19.20;59.88;100425.28;289247;34;1255;-75
2023/10/07 00:39:09;;;;;;;;;;;;;;;19.19;59.88;100428.91;289892;34;4054;-75
2023/10/07 00:39:20;;;;;;;;;;;;;;;19.18;59.91;100421.88;288640;34;5153;-75
2023/10/07 00:39:31;;;;;;;;;;;;;;;19.20;59.74;100420.00;287328;34;1340;-75
2023/10/07 00:39:43;;;;;;;;;;;;;;;19.19;59.78;100423.59;286523;34;868;-75
2023/10/07 00:39:53;;;;;;;;;;;;;;;19.20;59.92;100414.69;286124;34;6518;-75
2023/10/07 00:40:41;;;;;;;;;;;;;;;19.19;59.73;100424.44;283113;34;6458;-75
2023/10/07 00:40:54;;;;;;;;;;;;;;;19.20;59.98;100428.81;282085;34;5141;-75
2023/10/07 00:41:04;;;;;;;;;;;;;;;19.21;59.88;100421.69;279734;35;5233;-75
2023/10/07 00:41:18;;;;;;;;;;;;;;;19.18;59.89;100428.06;279176;35;1293;-75
2023/10/07 00:41:39;;;;;;;;;;;;;;;19.18;59.77;100424.53;277230;35;2268;-75
2023/10/07 00:41:59;;;;;;;;;;;;;;;19.19;59.84;100423.59;273732;36;1498;-75
2023/10/07 00:42:10;;;;;;;;;;;;;;;19.20;59.79;100430.59;273297;35;9459;-75
2023/10/07 00:42:22;;;;;;;;;;;;;;;19.20;59.73;100425.28;273831;35;10217;-75
2023/10/07 00:42:33;;;;;;;;;;;;;;;19.20;59.95;100430.59;271432;36;9057;-75
2023/10/07 00:44:35;;;;;;;;;;;;;;;19.22;60.26;100429.56;2502965;27;19941;-75
2023/10/07 00:44:47;;;;;;;;;;;;;;;19.19;60.49;100423.59;352275;28;1495;-75
2023/10/07 00:44:57;;;;;;;;;;;;;;;19.18;60.29;100429.84;351793;28;819;-76
2023/10/07 00:45:14;;;;;;;;;;;;;;;19.17;60.26;100422.84;348821;28;1327;-76
2023/10/07 00:45:28;;;;;;;;;;;;;;;19.14;60.20;100423.88;348878;28;1505;-76
2023/10/07 00:45:38;;;;;;;;;;;;;;;19.16;60.35;100424.63;347253;28;2582;-75
2023/10/07 00:45:48;;;;;;;;;;;;;;;19.17;60.37;100429.00;344944;28;4540;-75
2023/10/07 00:46:10;;;;;;;;;;;;;;;19.16;60.51;100424.63;347493;28;2703;-75
2023/10/07 00:46:28;;;;;;;;;;;;;;;19.18;60.68;100422.75;350115;28;2799;-75
2023/10/07 00:46:38;;;;;;;;;;;;;;;19.15;60.71;100433.53;344956;28;828;-75
2023/10/07 00:47:00;;;;;;;;;;;;;;;19.17;60.49;100430.78;344229;28;926;-75
2023/10/07 00:47:14;;;;;;;;;;;;;;;19.16;60.66;100429.94;343536;28;1349;-75
2023/10/07 00:47:26;;;;;;;;;;;;;;;19.18;60.48;100427.19;343421;28;1422;-75
2023/10/07 00:47:36;;;;;;;;;;;;;;;19.18;60.53;100437.81;344536;28;1507;-75
2023/10/07 00:47:49;;;;;;;;;;;;;;;19.15;61.03;100419.44;346111;28;1471;-75
2023/10/07 00:48:04;;;;;;;;;;;;;;;19.14;61.03;100423.03;348296;28;1389;-75
2023/10/07 00:48:16;;;;;;;;;;;;;;;19.15;60.98;100430.03;350314;28;986;-75
2023/10/07 00:48:42;;;;;;;;;;;;;;;19.13;60.75;100431.94;348928;28;1516;-75
2023/10/07 00:48:56;;;;;;;;;;;;;;;19.10;60.93;100430.34;351580;28;1282;-75
2023/10/07 00:49:13;;;;;;;;;;;;;;;19.11;61.11;100432.03;350095;28;1329;-75
2023/10/07 00:49:27;;;;;;;;;;;;;;;19.10;60.91;100434.78;346193;28;1413;-75
2023/10/07 00:49:50;;;;;;;;;;;;;;;19.10;61.10;100429.47;346244;28;1397;-75
2023/10/07 00:50:00;;;;;;;;;;;;;;;19.07;60.93;100429.66;344395;28;1273;-75
2023/10/07 00:50:10;;;;;;;;;;;;;;;19.08;60.99;100432.22;343346;28;1387;-75
2023/10/07 00:50:22;;;;;;;;;;;;;;;19.07;60.89;100427.00;345612;28;1377;-75
2023/10/07 00:50:34;;;;;;;;;;;;;;;19.07;60.68;100427.00;346188;28;956;-75
2023/10/07 00:50:45;;;;;;;;;;;;;;;19.05;60.87;100432.44;345295;28;1194;-75
2023/10/07 00:50:56;;;;;;;;;;;;;;;19.03;60.86;100428.19;344907;28;1376;-75
2023/10/07 00:51:11;;;;;;;;;;;;;;;19.02;61.06;100426.47;345796;28;1071;-75
2023/10/07 00:51:33;;;;;;;;;;;;;;;19.01;60.76;100425.63;346155;28;1039;-75
2023/10/07 00:51:46;;;;;;;;;;;;;;;19.02;60.71;100429.13;342182;28;1450;-75
2023/10/07 00:51:57;;;;;;;;;;;;;;;19.03;60.31;100422.88;342266;28;781;-75
2023/10/07 00:52:14;;;;;;;;;;;;;;;19.04;60.14;100424.59;339551;29;1031;-75
2023/10/07 00:52:40;;;;;;;;;;;;;;;19.04;60.33;100424.59;336028;29;1131;-75
2023/10/07 00:53:06;;;;;;;;;;;;;;;19.07;59.65;100419.06;336724;29;1662;-75
2023/10/07 00:53:24;;;;;;;;;;;;;;;19.07;59.12;100424.34;338375;29;1943;-75
2023/10/07 00:53:44;;;;;;;;;;;;;;;19.08;58.62;100420.75;339052;29;1459;-75
2023/10/07 00:54:07;;;;;;;;;;;;;;;19.09;57.60;100414.50;338013;29;1344;-75
2023/10/07 00:54:23;;;;;;;;;;;;;;;19.08;56.33;100418.09;340622;29;1339;-75
2023/10/07 00:54:44;;;;;;;;;;;;;;;19.08;56.19;100426.06;341263;28;1865;-75
2023/10/07 00:55:00;;;;;;;;;;;;;;;19.10;55.18;100424.16;336293;29;2683;-75
2023/10/07 00:55:24;;;;;;;;;;;;;;;19.11;54.97;100417.91;334567;29;4465;-75
2023/10/07 00:55:35;;;;;;;;;;;;;;;19.10;54.58;100421.53;332753;29;4622;-75
2023/10/07 00:55:46;;;;;;;;;;;;;;;19.09;54.50;100417.16;333010;29;835;-75
2023/10/07 00:55:58;;;;;;;;;;;;;;;19.07;54.36;100419.91;331819;29;1305;-75
2023/10/07 00:56:10;;;;;;;;;;;;;;;19.08;54.21;100424.25;329229;30;1438;-75
2023/10/07 00:56:22;;;;;;;;;;;;;;;19.08;53.96;100415.44;329912;29;1613;-75
2023/10/07 00:56:37;;;;;;;;;;;;;;;19.08;53.33;100420.75;328442;29;2170;-75
2023/10/07 00:56:54;;;;;;;;;;;;;;;19.05;53.20;100424.50;326408;30;2288;-75
2023/10/07 00:57:48;;;;;;;;;;;;;;;19.00;51.84;100421.28;319930;30;1043;-75
2023/10/07 00:58:35;;;;;;;;;;;;;;;18.99;51.58;100422.22;316269;31;1274;-75
2023/10/07 00:58:35;;;;;;;;;;;;;;;18.98;51.52;100415.22;316036;30;2092;-75
2023/10/07 00:58:46;;;;;;;;;;;;;;;18.98;51.19;100420.50;313222;31;2815;-75
2023/10/07 00:58:57;;;;;;;;;;;;;;;18.99;51.31;100421.38;314012;31;1321;-75
2023/10/07 00:59:09;;;;;;;;;;;;;;;19.01;51.51;100420.31;313157;31;3150;-75
2023/10/07 00:59:19;;;;;;;;;;;;;;;19.02;51.50;100418.53;314449;31;3445;-75
2023/10/07 00:59:30;;;;;;;;;;;;;;;19.02;51.17;100421.19;316055;31;3514;-75
2023/10/07 00:59:41;;;;;;;;;;;;;;;19.03;51.31;100425.53;316391;31;838;-75
2023/10/07 00:59:51;;;;;;;;;;;;;;;19.02;51.24;100415.88;314003;31;3452;-75
2023/10/07 01:00:12;;;;;;;;;;;;;;;19.02;51.13;100423.81;314022;31;2905;-75
2023/10/07 01:00:48;;;;;;;;;;;;;;;19.03;51.14;100417.56;313353;31;2872;-75
2023/10/07 01:01:02;;;;;;;;;;;;;;;19.03;51.43;100422.88;308450;31;1420;-75
2023/10/07 01:01:15;;;;;;;;;;;;;;;19.01;51.16;100420.31;308720;31;4297;-74
2023/10/07 01:01:28;;;;;;;;;;;;;;;19.00;51.26;100417.75;305236;32;1204;-75
2023/10/07 01:01:39;;;;;;;;;;;;;;;18.99;51.34;100411.59;304456;32;4461;-75
2023/10/07 01:01:54;;;;;;;;;;;;;;;19.00;51.45;100423.06;305376;32;5410;-75
2023/10/07 01:02:06;;;;;;;;;;;;;;;18.99;51.44;100416.06;305709;32;4768;-75
2023/10/07 01:02:29;;;;;;;;;;;;;;;19.00;51.44;100415.97;301695;32;3425;-75
2023/10/07 01:02:40;;;;;;;;;;;;;;;19.02;51.11;100415.88;297143;33;858;-75
2023/10/07 01:02:51;;;;;;;;;;;;;;;19.02;51.43;100415.88;293501;33;4521;-75
2023/10/07 01:03:47;;;;;;;;;;;;;;;19.01;51.21;100419.47;289152;34;6354;-75
2023/10/07 01:04:01;;;;;;;;;;;;;;;19.01;51.50;100414.16;284656;34;869;-75
2023/10/07 01:04:15;;;;;;;;;;;;;;;19.00;51.36;100418.63;282384;35;838;-75
2023/10/07 01:04:39;;;;;;;;;;;;;;;18.96;51.34;100417.09;278037;35;2725;-74
2023/10/07 01:04:49;;;;;;;;;;;;;;;18.94;51.51;100422.50;277065;35;5105;-75
2023/10/07 01:05:00;;;;;;;;;;;;;;;18.94;51.37;100414.53;276861;35;6357;-75
2023/10/07 01:05:13;;;;;;;;;;;;;;;18.94;51.53;100414.53;280035;35;4634;-75
2023/10/07 01:05:27;;;;;;;;;;;;;;;18.96;51.40;100416.25;277641;35;6682;-75
2023/10/07 01:05:38;;;;;;;;;;;;;;;18.96;51.57;100421.56;275461;35;8788;-75
2023/10/07 01:06:11;;;;;;;;;;;;;;;18.96;51.48;100417.09;276524;35;704;-75
2023/10/07 01:06:27;;;;;;;;;;;;;;;18.94;51.61;100419.84;278384;35;9168;-75
2023/10/07 01:08:49;;;;;;;;;;;;;;;18.96;51.71;100421.56;2496491;27;19933;-76
2023/10/07 01:09:22;;;;;;;;;;;;;;;18.94;51.85;100414.53;353106;28;910;-76
2023/10/07 01:09:32;;;;;;;;;;;;;;;18.91;51.93;100420.03;351707;28;1110;-76
2023/10/07 01:09:57;;;;;;;;;;;;;;;18.89;51.98;100416.63;351746;28;808;-76
2023/10/07 01:10:24;;;;;;;;;;;;;;;18.90;52.26;100413.03;349003;28;795;-76
2023/10/07 01:10:38;;;;;;;;;;;;;;;18.91;52.37;100412.09;347008;28;1490;-76
2023/10/07 01:10:54;;;;;;;;;;;;;;;18.90;52.16;100413.03;348967;28;894;-76
2023/10/07 01:11:30;;;;;;;;;;;;;;;18.90;52.37;100414.81;349068;28;879;-76
2023/10/07 01:11:46;;;;;;;;;;;;;;;18.88;52.37;100414.94;348982;28;831;-76
2023/10/07 01:11:59;;;;;;;;;;;;;;;18.88;52.39;100417.56;350156;28;1419;-75
2023/10/07 01:12:09;;;;;;;;;;;;;;;18.85;52.38;100415.13;350217;28;1317;-75
2023/10/07 01:12:20;;;;;;;;;;;;;;;18.85;52.42;100415.13;347394;28;1317;-75
2023/10/07 01:12:36;;;;;;;;;;;;;;;18.83;52.68;100416.16;346822;28;1040;-76
2023/10/07 01:12:51;;;;;;;;;;;;;;;18.83;52.45;100411.69;347554;28;1116;-76
2023/10/07 01:13:23;;;;;;;;;;;;;;;18.80;52.66;100417.19;346630;28;936;-76
2023/10/07 01:13:32;;;;;;;;;;;;;;;18.80;52.73;100417.19;341347;28;1397;-73
2023/10/07 01:13:51;;;;;;;;;;;;;;;18.80;52.81;100417.19;342943;28;2621;-76
2023/10/07 01:14:05;;;;;;;;;;;;;;;18.77;52.91;100414.72;342953;28;2528;-76
2023/10/07 01:14:15;;;;;;;;;;;;;;;18.77;52.72;100409.44;344122;28;943;-76
2023/10/07 01:14:33;;;;;;;;;;;;;;;18.76;52.57;100420.97;346020;28;1211;-76
2023/10/07 01:14:48;;;;;;;;;;;;;;;18.74;52.51;100414.91;344340;28;1265;-76
2023/10/07 01:14:58;;;;;;;;;;;;;;;18.74;52.71;100417.56;342834;28;1191;-76
2023/10/07 01:15:30;;;;;;;;;;;;;;;18.72;52.69;100418.63;342934;28;1337;-76
2023/10/07 01:15:40;;;;;;;;;;;;;;;18.72;52.63;100419.47;343166;28;1642;-76
2023/10/07 01:15:50;;;;;;;;;;;;;;;18.72;52.48;100423.91;343541;28;793;-76
2023/10/07 01:16:06;;;;;;;;;;;;;;;18.71;52.63;100416.91;341108;28;1350;-76
2023/10/07 01:16:27;;;;;;;;;;;;;;;18.71;52.51;100409.81;341117;28;969;-76
2023/10/07 01:16:40;;;;;;;;;;;;;;;18.72;52.80;100414.16;338163;29;1377;-76
2023/10/07 01:16:52;;;;;;;;;;;;;;;18.72;52.73;100418.63;333014;29;1261;-76
2023/10/07 01:17:03;;;;;;;;;;;;;;;18.71;52.79;100409.81;332066;29;1202;-76
2023/10/07 01:17:14;;;;;;;;;;;;;;;18.71;52.87;100411.59;333317;29;1738;-76
2023/10/07 01:17:30;;;;;;;;;;;;;;;18.70;52.99;100410.75;332191;29;1915;-76
2023/10/07 01:17:41;;;;;;;;;;;;;;;18.70;52.60;100416.06;334399;29;884;-76
2023/10/07 01:18:03;;;;;;;;;;;;;;;18.69;52.67;100413.50;332973;29;905;-76
2023/10/07 01:18:14;;;;;;;;;;;;;;;18.68;52.80;100412.66;333447;29;987;-76
2023/10/07 01:18:24;;;;;;;;;;;;;;;18.67;52.74;100416.25;330590;29;1378;-76
2023/10/07 01:18:40;;;;;;;;;;;;;;;18.66;52.94;100413.69;332829;29;1675;-76
2023/10/07 01:18:51;;;;;;;;;;;;;;;18.66;52.89;100413.69;330944;29;1359;-76
2023/10/07 01:19:29;;;;;;;;;;;;;;;18.64;53.03;100416.44;327433;30;2261;-76
2023/10/07 01:19:51;;;;;;;;;;;;;;;18.62;53.21;100413.06;325782;30;856;-76
2023/10/07 01:20:06;;;;;;;;;;;;;;;18.64;53.23;100410.28;326641;30;934;-76
2023/10/07 01:20:16;;;;;;;;;;;;;;;18.63;53.18;100409.41;321640;30;1524;-76
2023/10/07 01:21:11;;;;;;;;;;;;;;;18.64;53.12;100410.28;320904;30;1367;-76
2023/10/07 01:21:31;;;;;;;;;;;;;;;18.63;53.20;100414.72;316961;31;854;-76
2023/10/07 01:22:35;;;;;;;;;;;;;;;18.63;52.89;100404.13;313709;31;1960;-76
2023/10/07 01:23:02;;;;;;;;;;;;;;;18.59;52.69;100407.91;308857;31;1282;-76
2023/10/07 01:23:16;;;;;;;;;;;;;;;18.57;52.74;100407.13;306700;31;3250;-76
2023/10/07 01:23:33;;;;;;;;;;;;;;;18.59;53.09;100406.09;298936;32;3198;-76
2023/10/07 01:23:44;;;;;;;;;;;;;;;18.62;53.09;100407.75;302382;32;3320;-76
2023/10/07 01:23:54;;;;;;;;;;;;;;;18.63;52.80;100405.94;303299;32;849;-76
2023/10/07 01:24:06;;;;;;;;;;;;;;;18.62;53.04;100402.44;302655;32;3432;-76
2023/10/07 01:24:23;;;;;;;;;;;;;;;18.62;53.04;100409.53;304201;32;2587;-76
2023/10/07 01:24:49;;;;;;;;;;;;;;;18.63;52.75;100403.28;303011;32;2636;-76
2023/10/07 01:24:59;;;;;;;;;;;;;;;18.63;53.03;100409.41;297067;33;3320;-76
2023/10/07 01:25:15;;;;;;;;;;;;;;;18.64;52.84;100410.28;296100;33;1339;-76
2023/10/07 01:25:28;;;;;;;;;;;;;;;18.62;53.12;100410.41;296136;33;1455;-76
2023/10/07 01:25:44;;;;;;;;;;;;;;;18.60;53.07;100407.00;298166;33;834;-76
2023/10/07 01:25:54;;;;;;;;;;;;;;;18.59;52.95;100399.94;296547;33;1475;-76
2023/10/07 01:26:14;;;;;;;;;;;;;;;18.57;53.07;100410.66;294053;33;980;-76